createdAt,value
2023-03-16T00:00:32.968Z,46.42
2023-03-16T00:02:59.320Z,46.24
2023-03-16T00:05:25.938Z,46.44
2023-03-16T00:07:52.398Z,46.27
2023-03-16T00:10:18.746Z,46.34
2023-03-16T00:12:45.111Z,46.36
2023-03-16T00:15:12.045Z,46.22
2023-03-16T00:17:38.376Z,46.23
2023-03-16T00:20:07.036Z,46.23
2023-03-16T00:22:33.377Z,46.30
2023-03-16T00:24:59.702Z,46.25
2023-03-16T00:27:26.076Z,46.24
2023-03-16T00:29:56.027Z,46.22
2023-03-16T00:32:26.706Z,46.42
2023-03-16T00:34:53.125Z,46.35
2023-03-16T00:37:19.630Z,46.26
2023-03-16T00:39:46.245Z,46.29
2023-03-16T00:42:12.975Z,46.29
2023-03-16T00:44:39.325Z,46.14
2023-03-16T00:47:06.613Z,46.13
2023-03-16T00:49:35.899Z,46.31
2023-03-16T00:52:02.536Z,46.15
2023-03-16T00:54:29.201Z,46.31
2023-03-16T00:56:55.595Z,46.21
2023-03-16T00:59:22.000Z,46.18
2023-03-16T01:01:48.343Z,46.19
2023-03-16T01:04:14.695Z,46.23
2023-03-16T01:06:41.793Z,46.12
2023-03-16T01:09:09.599Z,46.16
2023-03-16T01:11:36.133Z,46.19
2023-03-16T01:14:02.455Z,46.27
2023-03-16T01:16:28.904Z,46.21
2023-03-16T01:18:56.123Z,46.02
2023-03-16T01:21:22.948Z,46.11
2023-03-16T01:23:49.906Z,46.09
2023-03-16T01:26:17.713Z,46.12
2023-03-16T01:28:45.844Z,46.04
2023-03-16T01:31:12.590Z,46.12
2023-03-16T01:33:38.964Z,46.26
2023-03-16T01:36:12.284Z,46.05
2023-03-16T01:38:44.582Z,46.04
2023-03-16T01:41:10.956Z,46.10
2023-03-16T01:43:38.214Z,46.12
2023-03-16T01:46:04.596Z,45.93
2023-03-16T01:48:37.496Z,45.96
2023-03-16T01:51:08.056Z,46.07
2023-03-16T01:53:34.558Z,46.06
2023-03-16T01:56:01.553Z,46.03
2023-03-16T01:58:28.351Z,46.01
2023-03-16T02:00:54.696Z,45.99
2023-03-16T02:03:21.858Z,45.97
2023-03-16T02:05:59.803Z,46.25
2023-03-16T02:08:27.408Z,46.03
2023-03-16T02:10:54.616Z,46.03
2023-03-16T02:13:22.217Z,46.11
2023-03-16T02:15:48.933Z,46.06
2023-03-16T02:46:05.135Z,45.97
2023-03-16T02:48:33.137Z,46.09
2023-03-16T02:50:59.579Z,46.01
2023-03-16T02:53:27.065Z,45.94
2023-03-16T02:55:55.114Z,46.00
2023-03-16T02:58:21.560Z,46.15
2023-03-16T03:00:47.926Z,46.07
2023-03-16T03:03:16.490Z,45.76
2023-03-16T03:05:42.882Z,45.95
2023-03-16T03:08:09.233Z,45.87
2023-03-16T03:10:35.666Z,45.96
2023-03-16T03:13:01.992Z,45.94
2023-03-16T03:15:28.408Z,45.89
2023-03-16T03:18:00.685Z,45.98
2023-03-16T03:20:30.086Z,45.81
2023-03-16T03:22:56.639Z,45.94
2023-03-16T03:25:23.005Z,45.87
2023-03-16T03:27:50.560Z,45.89
2023-03-16T03:30:20.677Z,45.87
2023-03-16T03:32:47.617Z,45.84
2023-03-16T03:35:14.240Z,45.92
2023-03-16T03:37:42.357Z,45.76
2023-03-16T03:40:11.623Z,45.74
2023-03-16T03:42:38.987Z,45.74
2023-03-16T03:45:05.543Z,45.83
2023-03-16T03:47:31.926Z,45.86
2023-03-16T03:49:59.492Z,45.64
2023-03-16T03:52:25.986Z,45.85
2023-03-16T03:54:52.345Z,45.78
2023-03-16T03:57:20.341Z,45.81
2023-03-16T03:59:48.092Z,45.78
2023-03-16T04:02:39.244Z,45.79
2023-03-16T04:05:09.630Z,45.86
2023-03-16T04:07:35.997Z,45.88
2023-03-16T04:10:06.466Z,45.81
2023-03-16T04:12:41.648Z,45.85
2023-03-16T04:15:12.454Z,45.60
2023-03-16T04:18:00.195Z,45.68
2023-03-16T04:20:27.021Z,45.68
2023-03-16T04:22:58.373Z,45.73
2023-03-16T04:25:26.541Z,45.67
2023-03-16T04:27:53.049Z,45.66
2023-03-16T04:30:23.297Z,45.73
2023-03-16T04:32:53.062Z,45.68
2023-03-16T04:35:22.141Z,45.71
2023-03-16T04:37:52.637Z,45.64
2023-03-16T04:40:23.309Z,45.77
2023-03-16T04:42:56.434Z,45.68
2023-03-16T04:45:24.140Z,45.75
2023-03-16T04:47:53.007Z,45.66
2023-03-16T04:50:19.687Z,45.58
2023-03-16T04:52:51.430Z,45.50
2023-03-16T04:55:18.241Z,45.58
2023-03-16T04:57:44.669Z,45.68
2023-03-16T05:00:14.773Z,45.55
2023-03-16T05:02:47.708Z,45.52
2023-03-16T05:05:15.205Z,45.73
2023-03-16T05:07:42.995Z,45.67
2023-03-16T05:10:09.883Z,45.56
2023-03-16T05:12:36.613Z,45.63
2023-03-16T05:15:05.852Z,45.46
2023-03-16T05:17:37.500Z,45.38
2023-03-16T05:20:08.115Z,45.53
2023-03-16T05:22:35.790Z,45.61
2023-03-16T05:25:14.980Z,45.42
2023-03-16T05:27:44.005Z,45.58
2023-03-16T05:30:13.105Z,45.57
2023-03-16T05:32:39.813Z,45.50
2023-03-16T05:35:07.065Z,45.59
2023-03-16T05:37:34.679Z,45.60
2023-03-16T05:40:01.536Z,45.66
2023-03-16T05:42:28.350Z,45.46
2023-03-16T05:45:08.469Z,45.45
2023-03-16T05:47:44.301Z,45.49
2023-03-16T05:50:11.429Z,45.48
2023-03-16T05:52:40.968Z,45.49
2023-03-16T05:55:17.108Z,45.50
2023-03-16T05:57:44.911Z,45.50
2023-03-16T06:00:15.595Z,45.65
2023-03-16T06:02:48.809Z,45.57
2023-03-16T06:05:16.377Z,45.60
2023-03-16T06:07:44.861Z,45.67
2023-03-16T06:10:11.991Z,45.58
2023-03-16T06:12:38.781Z,45.54
2023-03-16T06:15:08.359Z,45.51
2023-03-16T06:17:35.490Z,45.46
2023-03-16T06:20:02.202Z,45.48
2023-03-16T06:22:30.181Z,45.51
2023-03-16T06:24:56.916Z,45.56
2023-03-16T06:27:26.361Z,45.47
2023-03-16T06:30:08.667Z,45.45
2023-03-16T06:32:36.031Z,45.58
2023-03-16T06:35:03.506Z,45.37
2023-03-16T06:37:31.114Z,45.37
2023-03-16T06:40:00.594Z,45.34
2023-03-16T06:42:27.726Z,45.33
2023-03-16T06:44:54.391Z,45.38
2023-03-16T06:47:21.489Z,45.46
2023-03-16T06:49:47.916Z,45.38
2023-03-16T06:52:19.320Z,45.46
2023-03-16T06:54:45.664Z,45.61
2023-03-16T06:57:12.825Z,45.42
2023-03-16T06:59:39.170Z,45.59
2023-03-16T07:02:07.467Z,44.99
2023-03-16T07:04:34.137Z,45.25
2023-03-16T07:07:01.375Z,43.62
2023-03-16T07:09:27.758Z,37.56
2023-03-16T07:11:54.113Z,34.83
2023-03-16T07:14:22.735Z,35.36
2023-03-16T07:16:50.444Z,34.76
2023-03-16T07:19:17.077Z,34.14
2023-03-16T07:21:43.478Z,35.48
2023-03-16T07:24:15.178Z,35.09
2023-03-16T07:26:41.901Z,36.92
2023-03-16T07:29:09.618Z,36.17
2023-03-16T07:31:36.538Z,36.56
2023-03-16T07:34:07.867Z,36.99
2023-03-16T07:36:41.802Z,37.35
2023-03-16T07:39:08.207Z,37.58
2023-03-16T07:41:35.278Z,38.17
2023-03-16T07:44:14.326Z,38.08
2023-03-16T07:46:41.452Z,38.74
2023-03-16T07:49:09.604Z,38.93
2023-03-16T07:51:36.671Z,39.17
2023-03-16T07:54:04.346Z,39.13
2023-03-16T07:56:47.469Z,39.59
2023-03-16T07:59:21.759Z,40.08
2023-03-16T08:01:48.856Z,39.91
2023-03-16T08:04:15.205Z,40.16
2023-03-16T08:06:42.353Z,40.31
2023-03-16T08:09:08.704Z,40.45
2023-03-16T08:11:38.566Z,40.61
2023-03-16T08:14:05.467Z,40.70
2023-03-16T08:16:56.001Z,40.84
2023-03-16T08:19:25.006Z,40.98
2023-03-16T08:22:01.185Z,40.97
2023-03-16T08:24:32.175Z,41.13
2023-03-16T08:26:59.481Z,41.21
2023-03-16T08:29:26.062Z,41.33
2023-03-16T08:31:53.509Z,41.37
2023-03-16T08:34:27.252Z,41.41
2023-03-16T08:36:54.003Z,41.55
2023-03-16T08:39:20.386Z,41.58
2023-03-16T08:41:48.178Z,41.65
2023-03-16T08:44:30.249Z,41.86
2023-03-16T08:46:56.678Z,41.78
2023-03-16T08:49:24.066Z,41.93
2023-03-16T08:52:00.578Z,37.88
2023-03-16T08:54:26.978Z,36.86
2023-03-16T08:56:53.321Z,33.32
2023-03-16T08:59:29.019Z,34.95
2023-03-16T09:01:56.077Z,38.17
2023-03-16T09:04:23.495Z,38.36
2023-03-16T09:07:05.906Z,38.53
2023-03-16T09:09:35.480Z,38.41
2023-03-16T09:12:01.993Z,38.92
2023-03-16T09:14:29.078Z,38.93
2023-03-16T09:16:56.493Z,39.26
2023-03-16T09:19:22.883Z,39.47
2023-03-16T09:21:49.234Z,39.71
2023-03-16T09:24:15.577Z,40.00
2023-03-16T09:26:42.641Z,40.04
2023-03-16T09:29:09.047Z,40.21
2023-03-16T09:31:36.375Z,40.30
2023-03-16T09:34:02.820Z,40.51
2023-03-16T09:36:29.195Z,40.51
2023-03-16T09:38:56.194Z,40.66
2023-03-16T09:41:29.488Z,40.86
2023-03-16T09:43:59.243Z,41.25
2023-03-16T09:46:29.573Z,41.11
2023-03-16T09:48:56.208Z,41.41
2023-03-16T09:51:41.427Z,41.41
2023-03-16T09:54:28.402Z,41.58
2023-03-16T09:56:54.843Z,41.80
2023-03-16T09:59:22.538Z,41.83
2023-03-16T10:01:53.012Z,42.15
2023-03-16T10:04:50.480Z,41.80
2023-03-16T10:07:23.030Z,42.08
2023-03-16T10:09:59.084Z,42.25
2023-03-16T10:12:26.627Z,42.36
2023-03-16T10:14:57.535Z,42.43
2023-03-16T10:17:25.550Z,42.56
2023-03-16T10:19:53.164Z,42.54
2023-03-16T10:22:19.791Z,42.71
2023-03-16T10:25:07.673Z,42.71
2023-03-16T10:27:34.813Z,42.79
2023-03-16T10:30:01.642Z,42.78
2023-03-16T10:32:31.326Z,43.03
2023-03-16T10:35:02.404Z,43.01
2023-03-16T10:37:29.513Z,42.87
2023-03-16T10:39:56.465Z,42.99
2023-03-16T10:42:22.815Z,43.08
2023-03-16T10:44:49.573Z,43.05
2023-03-16T10:47:19.716Z,43.15
2023-03-16T10:49:51.150Z,43.09
2023-03-16T10:52:36.345Z,43.11
2023-03-16T10:55:07.853Z,43.17
2023-03-16T10:57:34.719Z,43.11
2023-03-16T11:00:07.161Z,43.10
2023-03-16T11:02:34.094Z,43.18
2023-03-16T11:05:10.976Z,43.02
2023-03-16T11:07:37.292Z,43.08
2023-03-16T11:10:12.111Z,42.96
2023-03-16T11:12:38.487Z,42.92
2023-03-16T11:15:09.327Z,42.79
2023-03-16T11:17:44.495Z,35.14
2023-03-16T11:20:14.704Z,32.99
2023-03-16T11:22:41.059Z,32.13
2023-03-16T11:25:20.324Z,30.76
2023-03-16T11:27:49.106Z,29.06
2023-03-16T11:30:18.012Z,28.95
2023-03-16T11:32:46.955Z,29.09
2023-03-16T11:35:13.505Z,29.10
2023-03-16T11:37:58.552Z,27.92
2023-03-16T11:40:24.886Z,28.56
2023-03-16T11:42:57.438Z,27.38
2023-03-16T11:45:33.440Z,27.84
2023-03-16T11:48:18.318Z,29.07
2023-03-16T11:50:58.803Z,30.26
2023-03-16T11:53:48.430Z,31.05
2023-03-16T11:56:16.140Z,31.55
2023-03-16T11:58:49.504Z,32.15
2023-03-16T12:01:24.670Z,32.45
2023-03-16T12:03:55.110Z,33.73
2023-03-16T12:06:24.286Z,33.62
2023-03-16T12:09:10.510Z,33.73
2023-03-16T12:11:43.500Z,33.86
2023-03-16T12:14:18.874Z,34.54
2023-03-16T12:16:53.978Z,34.89
2023-03-16T12:19:22.801Z,35.05
2023-03-16T12:21:59.639Z,35.13
2023-03-16T12:24:26.982Z,35.68
2023-03-16T12:26:53.321Z,35.69
2023-03-16T12:29:38.506Z,36.26
2023-03-16T12:32:24.326Z,36.28
2023-03-16T12:34:53.208Z,36.52
2023-03-16T12:37:23.477Z,36.70
2023-03-16T12:40:03.791Z,36.67
2023-03-16T12:42:42.386Z,36.96
2023-03-16T12:45:08.631Z,37.15
2023-03-16T12:47:39.775Z,37.42
2023-03-16T12:50:06.791Z,37.54
2023-03-16T12:52:42.988Z,37.48
2023-03-16T12:55:13.619Z,37.76
2023-03-16T12:57:40.576Z,37.85
2023-03-16T13:00:09.847Z,37.84
2023-03-16T13:02:37.023Z,37.97
2023-03-16T13:05:13.629Z,38.01
2023-03-16T13:07:49.893Z,38.20
2023-03-16T13:10:17.079Z,38.02
2023-03-16T13:12:43.427Z,38.27
2023-03-16T13:15:19.323Z,38.37
2023-03-16T13:17:46.525Z,38.60
2023-03-16T13:20:29.614Z,38.56
2023-03-16T13:23:10.122Z,38.82
2023-03-16T13:25:40.298Z,38.69
2023-03-16T13:28:06.672Z,38.89
2023-03-16T13:30:33.289Z,38.98
2023-03-16T13:33:00.465Z,39.04
2023-03-16T13:35:27.755Z,39.09
2023-03-16T13:37:54.447Z,39.03
2023-03-16T13:40:21.907Z,39.27
2023-03-16T13:42:49.727Z,39.11
2023-03-16T13:45:16.276Z,39.22
2023-03-16T13:47:43.221Z,39.14
2023-03-16T13:50:13.663Z,39.38
2023-03-16T13:52:40.309Z,39.32
2023-03-16T13:55:07.364Z,39.39
2023-03-16T13:57:37.025Z,39.49
2023-03-16T14:00:06.608Z,39.38
2023-03-16T14:02:36.331Z,39.39
2023-03-16T14:05:12.906Z,39.49
2023-03-16T14:07:39.396Z,39.44
2023-03-16T14:10:06.372Z,39.29
2023-03-16T14:12:32.702Z,39.48
2023-03-16T14:14:59.593Z,39.58
2023-03-16T14:17:26.170Z,39.53
2023-03-16T14:19:54.173Z,39.69
2023-03-16T14:22:23.369Z,39.63
2023-03-16T14:24:53.981Z,39.79
2023-03-16T14:27:21.774Z,39.62
2023-03-16T14:29:53.103Z,39.79
2023-03-16T14:32:21.810Z,39.80
2023-03-16T14:34:51.239Z,39.78
2023-03-16T14:37:19.195Z,39.91
2023-03-16T14:39:45.887Z,40.04
2023-03-16T14:42:14.374Z,40.16
2023-03-16T14:44:40.721Z,39.92
2023-03-16T14:47:07.182Z,40.01
2023-03-16T14:49:33.772Z,39.88
2023-03-16T14:52:02.040Z,39.98
2023-03-16T14:54:29.392Z,40.19
2023-03-16T14:56:59.502Z,40.15
2023-03-16T14:59:25.969Z,40.31
2023-03-16T15:01:52.343Z,40.35
2023-03-16T15:04:20.624Z,40.49
2023-03-16T15:06:47.350Z,40.44
2023-03-16T15:09:31.398Z,40.65
2023-03-16T15:11:58.153Z,40.53
2023-03-16T15:14:56.375Z,40.80
2023-03-16T15:17:22.934Z,40.76
2023-03-16T15:19:50.403Z,40.66
2023-03-16T15:22:17.352Z,40.61
2023-03-16T15:24:43.672Z,40.66
2023-03-16T15:27:16.018Z,40.81
2023-03-16T15:29:42.346Z,40.61
2023-03-16T15:32:10.976Z,40.78
2023-03-16T15:34:37.305Z,41.02
2023-03-16T15:37:03.630Z,41.09
2023-03-16T15:39:29.976Z,41.22
2023-03-16T15:41:56.445Z,41.14
2023-03-16T15:44:22.801Z,41.38
2023-03-16T15:46:49.232Z,41.32
2023-03-16T15:49:15.926Z,41.40
2023-03-16T15:51:42.270Z,41.39
2023-03-16T15:54:08.637Z,41.40
2023-03-16T15:56:47.275Z,41.56
2023-03-16T15:59:19.425Z,41.52
2023-03-16T16:01:46.180Z,41.47
2023-03-16T16:04:13.180Z,41.55
2023-03-16T16:06:39.709Z,41.38
2023-03-16T16:09:06.388Z,41.40
2023-03-16T16:11:32.713Z,41.45
2023-03-16T16:13:59.292Z,41.51
2023-03-16T16:16:29.073Z,41.48
2023-03-16T16:18:55.514Z,41.46
2023-03-16T16:21:24.563Z,41.46
2023-03-16T16:23:51.388Z,41.55
2023-03-16T16:26:55.230Z,41.53
2023-03-16T16:29:25.674Z,41.46
2023-03-16T16:31:52.370Z,41.57
2023-03-16T16:34:21.067Z,41.56
2023-03-16T16:36:47.958Z,41.69
2023-03-16T16:39:14.301Z,41.71
2023-03-16T16:41:40.632Z,41.75
2023-03-16T16:44:10.215Z,41.66
2023-03-16T16:46:40.577Z,41.87
2023-03-16T16:49:14.034Z,41.61
2023-03-16T16:51:40.361Z,41.80
2023-03-16T16:54:17.138Z,41.72
2023-03-16T16:56:43.748Z,41.66
2023-03-16T16:59:18.138Z,41.84
2023-03-16T17:01:44.878Z,41.72
2023-03-16T17:04:15.863Z,41.93
2023-03-16T17:06:42.331Z,41.90
2023-03-16T17:09:08.842Z,41.93
2023-03-16T17:11:35.245Z,41.97
2023-03-16T17:14:02.146Z,41.99
2023-03-16T17:16:32.155Z,41.91
2023-03-16T17:18:58.591Z,41.98
2023-03-16T17:21:25.656Z,41.90
2023-03-16T17:23:53.097Z,41.87
2023-03-16T17:26:23.348Z,42.04
2023-03-16T17:29:02.559Z,42.14
2023-03-16T17:31:32.279Z,41.97
2023-03-16T17:33:58.627Z,42.08
2023-03-16T17:36:25.104Z,41.92
2023-03-16T17:38:52.002Z,35.20
2023-03-16T17:41:21.550Z,33.69
2023-03-16T17:43:48.095Z,36.65
2023-03-16T17:46:17.606Z,38.93
2023-03-16T17:48:45.519Z,38.56
2023-03-16T17:51:13.568Z,39.05
2023-03-16T17:53:39.909Z,39.06
2023-03-16T17:56:12.996Z,38.68
2023-03-16T17:58:40.344Z,35.28
2023-03-16T18:01:06.692Z,34.60
2023-03-16T18:03:33.073Z,35.38
2023-03-16T18:05:59.531Z,35.87
2023-03-16T18:08:26.669Z,36.97
2023-03-16T18:10:59.906Z,37.33
2023-03-16T18:13:30.544Z,37.45
2023-03-16T18:15:57.246Z,37.76
2023-03-16T18:18:24.948Z,37.94
2023-03-16T18:20:52.099Z,38.65
2023-03-16T18:23:19.271Z,39.07
2023-03-16T18:25:45.745Z,39.14
2023-03-16T18:28:12.488Z,39.56
2023-03-16T18:30:39.292Z,39.46
2023-03-16T18:33:06.560Z,39.53
2023-03-16T18:35:33.005Z,40.08
2023-03-16T18:37:59.503Z,40.08
2023-03-16T18:40:25.895Z,39.75
2023-03-16T18:42:53.816Z,40.05
2023-03-16T18:45:20.141Z,37.38
2023-03-16T18:47:48.596Z,37.74
2023-03-16T18:50:19.138Z,37.50
2023-03-16T18:52:45.472Z,37.10
2023-03-16T18:55:16.077Z,38.08
2023-03-16T18:57:42.395Z,38.42
2023-03-16T19:00:14.493Z,38.35
2023-03-16T19:02:41.387Z,38.27
2023-03-16T19:05:12.778Z,38.53
2023-03-16T19:07:40.953Z,38.72
2023-03-16T19:10:26.417Z,39.11
2023-03-16T19:12:52.831Z,39.22
2023-03-16T19:15:20.464Z,39.33
2023-03-16T19:17:47.590Z,39.38
2023-03-16T19:20:14.827Z,39.33
2023-03-16T19:22:41.907Z,39.60
2023-03-16T19:25:09.077Z,39.48
2023-03-16T19:27:36.869Z,39.73
2023-03-16T19:30:03.210Z,39.96
2023-03-16T19:32:29.581Z,40.10
2023-03-16T19:34:56.204Z,39.97
2023-03-16T19:37:23.862Z,40.10
2023-03-16T19:39:50.230Z,40.18
2023-03-16T19:42:25.783Z,40.18
2023-03-16T19:44:52.158Z,39.93
2023-03-16T19:47:31.166Z,39.97
2023-03-16T19:49:58.674Z,40.11
2023-03-16T19:52:25.732Z,40.55
2023-03-16T19:54:52.066Z,40.49
2023-03-16T19:57:18.925Z,40.42
2023-03-16T19:59:46.581Z,40.50
2023-03-16T20:02:33.116Z,40.67
2023-03-16T20:04:59.468Z,40.66
2023-03-16T20:07:25.924Z,40.72
2023-03-16T20:09:52.314Z,40.83
2023-03-16T20:12:23.068Z,40.79
2023-03-16T20:14:49.681Z,40.71
2023-03-16T20:17:19.066Z,40.79
2023-03-16T20:19:45.414Z,40.80
2023-03-16T20:22:21.418Z,40.81
2023-03-16T20:24:49.433Z,40.86
2023-03-16T20:27:15.772Z,40.98
2023-03-16T20:29:42.163Z,41.03
2023-03-16T20:32:13.113Z,41.13
2023-03-16T20:34:39.450Z,41.18
2023-03-16T20:37:11.839Z,41.29
2023-03-16T20:39:38.577Z,41.20
2023-03-16T20:42:04.909Z,41.38
2023-03-16T20:44:31.245Z,41.35
2023-03-16T20:46:57.599Z,41.44
2023-03-16T20:49:25.173Z,41.42
2023-03-16T20:51:51.523Z,41.47
2023-03-16T20:54:17.864Z,41.38
2023-03-16T20:56:44.199Z,41.35
2023-03-16T20:59:16.768Z,41.53
2023-03-16T21:01:45.707Z,41.53
2023-03-16T21:04:19.628Z,41.38
2023-03-16T21:06:48.808Z,41.62
2023-03-16T21:09:15.567Z,41.46
2023-03-16T21:11:43.397Z,41.55
2023-03-16T21:14:20.786Z,41.48
2023-03-16T21:16:47.745Z,41.77
2023-03-16T21:19:17.742Z,41.83
2023-03-16T21:21:44.167Z,41.79
2023-03-16T21:24:10.510Z,41.65
2023-03-16T21:26:37.371Z,41.66
2023-03-16T21:29:06.601Z,41.71
2023-03-16T21:31:33.016Z,41.70
2023-03-16T21:33:59.400Z,41.58
2023-03-16T21:36:26.540Z,41.63
2023-03-16T21:38:52.900Z,41.72
2023-03-16T21:41:19.233Z,41.62
2023-03-16T21:43:46.554Z,41.51
2023-03-16T21:46:13.985Z,41.80
2023-03-16T21:48:40.334Z,41.91
2023-03-16T21:51:16.729Z,41.62
2023-03-16T21:53:43.189Z,41.77
2023-03-16T21:56:16.264Z,41.84
2023-03-16T21:58:43.043Z,41.85
2023-03-16T22:01:18.817Z,41.68
2023-03-16T22:03:50.964Z,41.78
2023-03-16T22:06:22.566Z,41.73
2023-03-16T22:08:52.544Z,41.79
2023-03-16T22:11:19.717Z,41.76
2023-03-16T22:13:46.440Z,41.82
2023-03-16T22:16:14.061Z,41.72
2023-03-16T22:18:40.600Z,41.95
2023-03-16T22:21:25.031Z,41.93
2023-03-16T22:23:51.620Z,41.84
2023-03-16T22:26:18.488Z,41.92
2023-03-16T22:28:46.566Z,41.89
2023-03-16T22:31:13.578Z,41.87
2023-03-16T22:33:40.423Z,41.92
2023-03-16T22:36:13.737Z,41.75
2023-03-16T22:38:40.163Z,41.78
2023-03-16T22:41:06.563Z,41.73
2023-03-16T22:43:36.261Z,41.83
2023-03-16T22:46:02.647Z,41.80
2023-03-16T22:48:29.962Z,41.76
2023-03-16T22:50:56.926Z,41.85
2023-03-16T22:53:25.534Z,41.82
2023-03-16T22:55:51.871Z,41.78
2023-03-16T22:58:29.612Z,42.01
2023-03-16T23:00:55.977Z,41.88
2023-03-16T23:03:22.301Z,41.79
2023-03-16T23:05:48.694Z,42.00
2023-03-16T23:08:15.999Z,41.86
2023-03-16T23:10:42.345Z,41.81
2023-03-16T23:13:12.245Z,41.77
2023-03-16T23:15:39.074Z,41.82
2023-03-16T23:18:11.150Z,41.89
2023-03-16T23:20:37.494Z,41.88
2023-03-16T23:23:04.147Z,41.97
2023-03-16T23:25:30.619Z,41.91
2023-03-16T23:27:56.953Z,41.92
2023-03-16T23:30:24.121Z,41.95
2023-03-16T23:32:51.840Z,42.05
2023-03-16T23:35:19.627Z,42.28
2023-03-16T23:37:46.173Z,42.61
2023-03-16T23:40:12.805Z,42.63
2023-03-16T23:42:39.179Z,42.69
2023-03-16T23:45:08.375Z,42.66
2023-03-16T23:47:34.705Z,42.37
2023-03-16T23:50:01.053Z,42.38
2023-03-16T23:52:27.765Z,42.35
2023-03-16T23:54:54.084Z,42.25
2023-03-16T23:57:20.887Z,42.38
2023-03-16T23:59:47.212Z,42.25
